X  Cerrar Datos meteorológicos de aviación METAR        LYNI Nis Airport
Temperatura
26°C Temperatura
8°C Punto de rocío
32% Humedad



Viento
3 M/S
7 MPH
11 KM/H
6 NUDO



20°
NNE
Condiciones actuales

Mostly Sunny Mostly Sunny
Presión 1017 (hPa) - 30.03 (inHg)
Visibilidad 6 (milla) - 10 (km)
Aeropuerto
Código de aeropuerto LYNI

localidad: Nis Airport
Distancia: 75 (km)

Metar:
METAR LYNI 271230Z 02006KT 340V090 9999 FEW050 26/08 Q1018 NOSIG

Hora: 27-05-2024 14:30 CEST